Terminal Aerodrome Forecast
Issued by NWS Atlanta, GA

Home | Current Version | Previous Version | Text Only | Print | Product List | Glossary On
Versions: 1 2 3 4 5 6 7 8 9 10 11 12 13 14 15 16 17 18 19 20 21 22 23 24 25 26 27 28 29 30 31 32 33 34 35 36 37 38 39 40
000
FTUS42 KFFC 091530 AAB
TAFATL
TAF AMD
KATL 091530Z 0916/1018 28014G24KT P6SM -SHSN SCT025 BKN040 OVC070
      TEMPO 0916/0920 5SM -SHSN SCT015 BKN025
     FM092000 29012G22KT P6SM -SHSN BKN035 OVC070
     FM100400 29010KT P6SM BKN030
     FM101200 29012G22KT P6SM SCT035=

USA.gov is the U.S. government's official web portal to all federal, state and local government web resources and services.